Weather at Overturf Field

Public forecast

Using degrees Fahrenheit for public forecast. Weather courtesy of forecast.io.

Closest aviation weather report (METAR) to Overturf Field

Closest report is Little Rock Air Force Base, 9.7 nm (18.0 km) WSW. Retrieved 2020/10/01 02:56 UTC (21 minutes ago):

KLRF 010256Z AUTO 26004KT 10SM CLR 18/13 A2999 RMK AO2 SLP157 T01780133 52014

Closest aviation forecast (TAF) to Overturf Field

Closest forecast is Little Rock Air Force Base, 9.7 nm (18.0 km) WSW. Retrieved 2020-10-01 23:54 UTC (0 seconds ago):

TAF TAF KLRF 302300Z 3023/0205 20006KT 9999 SKC QNH2993INS BECMG 0105/0106 31006KT 9999 SKC QNH3003INS BECMG 0117/0118 33010G15KT 9999 SKC QNH3015INS BECMG 0123/0124 35006KT 9999 SKC QNH3014INS TX30/0121Z TN13/0112Z